Time;durP1;ratioP1;P1;durP2;ratioP2;P2;SDS_P1;SDS_P2;PMS_P1;PMS_P2;Temp;Humidity;BMP_temperature;BMP_pressure;BME280_temperature;BME280_humidity;BME280_pressure;Samples;Min_cycle;Max_cycle;Signal;HPM_P1;HPM_P2
2022/02/22 00:02:19;;;;;;;1.33;0.50;;;6.60;67.00;;;;;;5113546;27;20045;-83
2022/02/22 00:04:45;;;;;;;3.40;1.13;;;6.60;67.20;;;;;;5102641;27;20023;-83
2022/02/22 00:07:12;;;;;;;2.97;0.77;;;6.50;67.70;;;;;;5122112;27;20028;-83
2022/02/22 00:09:39;;;;;;;2.27;0.70;;;6.40;67.60;;;;;;5110248;27;20027;-84
2022/02/22 00:12:05;;;;;;;1.73;0.73;;;6.30;68.10;;;;;;5118196;27;20058;-84
2022/02/22 00:14:31;;;;;;;1.83;0.70;;;6.20;68.50;;;;;;5081990;28;20430;-83
2022/02/22 00:16:57;;;;;;;1.03;0.50;;;6.30;68.50;;;;;;5117996;27;20080;-83
2022/02/22 00:19:23;;;;;;;1.03;0.60;;;6.40;68.50;;;;;;5110421;27;20078;-83
2022/02/22 00:21:50;;;;;;;1.37;0.60;;;6.40;68.10;;;;;;5128104;27;20023;-84
2022/02/22 00:24:16;;;;;;;1.93;0.47;;;6.40;67.90;;;;;;5110445;27;20105;-84
2022/02/22 00:26:42;;;;;;;2.30;0.90;;;6.40;68.30;;;;;;5132231;27;20027;-84
2022/02/22 00:29:08;;;;;;;1.87;0.50;;;6.40;68.00;;;;;;5109507;27;20028;-84
2022/02/22 00:31:35;;;;;;;1.50;0.70;;;6.30;68.30;;;;;;5134320;27;20022;-84
2022/02/22 00:34:01;;;;;;;1.93;0.50;;;6.50;68.90;;;;;;5116407;27;20026;-85
2022/02/22 00:36:27;;;;;;;0.77;0.50;;;6.60;67.90;;;;;;5112705;28;20023;-85
2022/02/22 00:38:53;;;;;;;3.97;0.40;;;7.00;68.60;;;;;;5106901;28;20028;-85
2022/02/22 00:41:19;;;;;;;0.80;0.40;;;7.50;66.90;;;;;;5111406;28;20043;-85
2022/02/22 00:43:44;;;;;;;1.57;0.30;;;7.70;65.50;;;;;;5100879;28;20023;-85
2022/02/22 00:46:10;;;;;;;1.17;0.40;;;7.40;65.30;;;;;;5127823;27;20058;-85
2022/02/22 00:48:36;;;;;;;1.17;0.50;;;7.40;65.90;;;;;;5130530;27;20026;-85
2022/02/22 00:51:01;;;;;;;2.03;0.70;;;7.50;65.30;;;;;;5144488;27;20422;-85
2022/02/22 00:53:27;;;;;;;0.67;0.20;;;7.40;65.70;;;;;;5127029;27;20038;-84
2022/02/22 00:55:53;;;;;;;2.40;0.30;;;7.70;65.70;;;;;;5130319;27;20035;-85
2022/02/22 00:58:19;;;;;;;0.80;0.17;;;7.70;64.20;;;;;;5127744;27;20038;-85
2022/02/22 01:00:45;;;;;;;0.90;0.30;;;7.60;64.80;;;;;;5124092;27;20019;-85
2022/02/22 01:03:11;;;;;;;1.30;0.33;;;7.80;64.50;;;;;;5132153;27;20495;-85
2022/02/22 01:05:37;;;;;;;0.50;0.23;;;7.80;63.50;;;;;;5142473;27;20535;-84
2022/02/22 01:08:03;;;;;;;3.37;1.07;;;7.60;64.00;;;;;;5131726;27;20068;-84
2022/02/22 01:10:29;;;;;;;1.83;0.20;;;7.90;64.40;;;;;;5128664;27;20034;-84
2022/02/22 01:12:55;;;;;;;3.10;0.20;;;8.20;62.80;;;;;;5123834;27;20027;-85
2022/02/22 01:15:21;;;;;;;2.30;0.63;;;8.00;62.10;;;;;;5134249;27;20023;-84
2022/02/22 01:17:47;;;;;;;1.90;0.30;;;7.70;63.10;;;;;;5128406;27;20526;-84
2022/02/22 01:20:13;;;;;;;1.60;0.30;;;7.60;63.20;;;;;;5143195;27;20042;-84
2022/02/22 01:22:40;;;;;;;1.50;0.33;;;7.40;63.60;;;;;;5130083;27;22665;-84
2022/02/22 01:25:08;;;;;;;2.03;0.23;;;7.30;64.10;;;;;;5141108;27;20411;-83
2022/02/22 01:27:34;;;;;;;5.93;0.67;;;7.30;64.40;;;;;;5127670;27;20068;-83
2022/02/22 01:30:00;;;;;;;3.90;0.50;;;7.20;64.40;;;;;;5150075;27;20019;-84
2022/02/22 01:32:27;;;;;;;1.87;0.50;;;7.10;64.40;;;;;;5140440;27;20485;-83
2022/02/22 01:34:53;;;;;;;3.40;0.60;;;7.00;64.80;;;;;;5132781;27;20471;-84
2022/02/22 01:37:19;;;;;;;1.77;0.50;;;6.90;65.00;;;;;;5145014;27;20076;-84
2022/02/22 01:39:45;;;;;;;2.53;0.27;;;6.90;65.30;;;;;;5134162;27;20043;-84
2022/02/22 01:42:11;;;;;;;1.37;0.37;;;6.90;65.30;;;;;;5124285;27;20031;-84
2022/02/22 01:44:37;;;;;;;3.10;0.50;;;7.20;65.40;;;;;;5131039;27;20469;-83
2022/02/22 01:47:05;;;;;;;1.10;0.30;;;7.30;63.90;;;;;;5146417;27;20046;-83
2022/02/22 01:49:32;;;;;;;1.90;0.40;;;7.10;64.10;;;;;;5122859;28;20023;-84
2022/02/22 01:51:58;;;;;;;1.70;0.20;;;7.00;64.40;;;;;;5144032;27;20605;-83
2022/02/22 01:54:26;;;;;;;4.03;0.40;;;6.80;64.80;;;;;;5142727;27;20057;-84
2022/02/22 01:56:53;;;;;;;1.73;0.20;;;6.90;65.30;;;;;;5127186;27;20495;-84
2022/02/22 01:59:20;;;;;;;2.03;0.30;;;6.90;65.30;;;;;;5144311;27;20071;-84
2022/02/22 02:01:46;;;;;;;1.07;0.30;;;6.90;65.30;;;;;;5131192;27;20048;-84
2022/02/22 02:04:12;;;;;;;2.50;0.50;;;6.90;65.70;;;;;;5135056;27;20227;-84
2022/02/22 02:06:38;;;;;;;2.70;0.67;;;6.90;65.50;;;;;;5125152;27;20023;-84
2022/02/22 02:09:08;;;;;;;2.30;0.47;;;7.00;65.20;;;;;;5126579;28;20042;-84
2022/02/22 02:11:47;;;;;;;1.03;0.20;;;7.00;64.80;;;;;;5132345;28;20072;-83
2022/02/22 02:14:14;;;;;;;1.00;0.40;;;6.90;65.20;;;;;;5132307;28;20024;-83
2022/02/22 02:16:40;;;;;;;2.90;0.30;;;6.90;65.30;;;;;;5132472;28;20018;-83
2022/02/22 02:19:09;;;;;;;7.93;0.40;;;7.10;66.10;;;;;;5133896;27;20016;-84
2022/02/22 02:21:37;;;;;;;1.23;0.20;;;7.20;64.50;;;;;;5133507;27;20015;-83
2022/02/22 02:24:11;;;;;;;0.97;0.20;;;7.20;64.30;;;;;;5132359;28;20111;-84
2022/02/22 02:26:37;;;;;;;5.77;0.30;;;7.10;64.20;;;;;;5116889;28;20114;-84
2022/02/22 02:29:07;;;;;;;3.40;0.50;;;6.90;64.50;;;;;;5118845;28;20050;-83
2022/02/22 02:31:33;;;;;;;3.20;0.73;;;6.80;65.00;;;;;;5132003;28;20023;-83
2022/02/22 02:34:00;;;;;;;2.30;0.40;;;6.70;65.30;;;;;;5131914;28;20023;-83
2022/02/22 02:36:27;;;;;;;2.00;0.37;;;6.60;65.70;;;;;;5131952;28;20043;-83
2022/02/22 02:38:52;;;;;;;2.93;0.47;;;6.50;65.70;;;;;;5134596;27;20031;-83
2022/02/22 02:41:18;;;;;;;1.20;0.30;;;6.60;66.20;;;;;;5127433;27;20141;-83
2022/02/22 02:43:44;;;;;;;1.97;0.30;;;6.70;66.30;;;;;;5115262;28;20419;-83
2022/02/22 02:46:09;;;;;;;1.43;0.40;;;6.90;66.00;;;;;;5115207;28;20047;-84
2022/02/22 02:48:35;;;;;;;1.47;0.30;;;6.80;65.60;;;;;;5115632;28;20392;-83
2022/02/22 02:51:01;;;;;;;1.23;0.30;;;6.70;65.80;;;;;;5115437;28;20167;-83
2022/02/22 02:53:27;;;;;;;0.50;0.30;;;6.60;65.90;;;;;;5126041;27;20390;-83
2022/02/22 02:55:53;;;;;;;0.90;0.30;;;6.60;66.30;;;;;;5134443;27;20110;-84
2022/02/22 02:58:19;;;;;;;0.73;0.40;;;6.50;66.40;;;;;;5133398;27;20019;-84
2022/02/22 03:00:44;;;;;;;1.00;0.60;;;6.60;66.60;;;;;;5153302;27;20045;-84
2022/02/22 03:03:10;;;;;;;1.40;0.70;;;6.70;66.80;;;;;;5137367;27;20019;-83
2022/02/22 03:05:36;;;;;;;3.40;0.70;;;6.70;66.70;;;;;;5153327;27;20087;-84
2022/02/22 03:08:01;;;;;;;0.80;0.40;;;6.60;66.50;;;;;;5153182;27;20023;-84
2022/02/22 03:10:27;;;;;;;1.00;0.40;;;6.60;66.90;;;;;;5130274;27;20493;-84
2022/02/22 03:12:53;;;;;;;1.90;0.30;;;6.60;67.10;;;;;;5123245;27;20032;-84
2022/02/22 03:15:19;;;;;;;1.07;0.30;;;6.50;67.20;;;;;;5144978;27;20027;-84
2022/02/22 03:17:44;;;;;;;1.57;0.30;;;6.50;67.50;;;;;;5145313;27;20034;-84
2022/02/22 03:20:11;;;;;;;2.63;0.20;;;6.30;67.50;;;;;;5146528;27;20020;-84
2022/02/22 03:22:45;;;;;;;3.13;0.50;;;6.30;68.20;;;;;;5151365;27;20020;-84
2022/02/22 03:25:13;;;;;;;0.77;0.33;;;6.30;67.90;;;;;;5132795;27;20024;-85
2022/02/22 03:27:40;;;;;;;1.20;0.30;;;6.30;68.10;;;;;;5127009;27;20023;-84
2022/02/22 03:30:06;;;;;;;1.07;0.30;;;6.30;68.10;;;;;;5130257;27;20031;-84
2022/02/22 03:32:32;;;;;;;1.13;0.20;;;6.30;67.90;;;;;;5132876;27;20027;-84
2022/02/22 03:34:58;;;;;;;3.63;0.47;;;6.10;69.50;;;;;;5136102;27;20540;-84
2022/02/22 03:37:23;;;;;;;1.20;0.73;;;6.40;69.10;;;;;;5154859;27;20054;-84
2022/02/22 03:39:49;;;;;;;3.40;0.80;;;6.40;68.90;;;;;;5133901;27;20080;-84
2022/02/22 03:42:15;;;;;;;2.80;0.80;;;6.40;68.50;;;;;;5141815;27;20346;-84
2022/02/22 03:44:41;;;;;;;2.43;0.87;;;6.30;68.60;;;;;;5124409;27;20022;-84
2022/02/22 03:47:06;;;;;;;1.67;0.40;;;6.30;68.80;;;;;;5140914;27;20043;-85
2022/02/22 03:49:33;;;;;;;0.63;0.40;;;6.20;68.70;;;;;;5117856;27;20047;-84
2022/02/22 03:51:59;;;;;;;1.50;0.57;;;6.10;68.70;;;;;;5143286;27;20027;-84
2022/02/22 03:54:25;;;;;;;2.13;1.07;;;6.00;69.30;;;;;;5129421;27;20053;-84
2022/02/22 03:56:50;;;;;;;3.53;1.80;;;6.00;69.20;;;;;;5126618;27;20032;-84
2022/02/22 03:59:16;;;;;;;3.80;0.80;;;6.10;69.70;;;;;;5136110;27;20026;-84
2022/02/22 04:01:42;;;;;;;2.63;1.20;;;6.10;69.30;;;;;;5144467;27;20027;-83
2022/02/22 04:04:08;;;;;;;2.57;1.00;;;6.20;69.30;;;;;;5129100;27;20024;-83
2022/02/22 04:06:33;;;;;;;2.40;0.60;;;6.10;69.50;;;;;;5126010;27;20122;-84
2022/02/22 04:08:59;;;;;;;3.50;1.10;;;6.20;69.70;;;;;;5129785;27;20031;-84
2022/02/22 04:11:25;;;;;;;1.73;0.53;;;6.30;69.00;;;;;;5133705;27;20076;-84
2022/02/22 04:13:51;;;;;;;1.10;0.30;;;6.30;69.00;;;;;;5141723;27;20054;-84
2022/02/22 04:16:16;;;;;;;1.47;0.60;;;6.70;69.60;;;;;;5143587;27;20038;-84
2022/02/22 04:18:42;;;;;;;1.33;0.60;;;6.70;67.90;;;;;;5142037;27;20019;-84
2022/02/22 04:21:08;;;;;;;2.10;0.60;;;6.40;67.80;;;;;;5125599;27;20023;-83
2022/02/22 04:23:33;;;;;;;0.70;0.30;;;6.40;68.80;;;;;;5122572;27;20050;-83
2022/02/22 04:25:59;;;;;;;1.37;0.33;;;6.40;68.60;;;;;;5130118;27;20094;-83
2022/02/22 04:28:25;;;;;;;1.80;0.50;;;6.20;68.80;;;;;;5129560;27;20027;-84
2022/02/22 04:30:51;;;;;;;1.03;0.47;;;6.10;69.10;;;;;;5128770;27;20031;-85
2022/02/22 04:33:16;;;;;;;1.03;0.60;;;6.00;69.50;;;;;;5164968;27;20395;-84
2022/02/22 04:35:42;;;;;;;0.93;0.50;;;6.00;69.90;;;;;;5134596;27;20023;-84
2022/02/22 04:38:08;;;;;;;0.70;0.40;;;5.90;69.50;;;;;;5120828;27;20611;-84
2022/02/22 04:40:33;;;;;;;0.80;0.40;;;6.00;70.20;;;;;;5125205;27;20019;-85
2022/02/22 04:42:59;;;;;;;1.23;0.17;;;6.40;70.40;;;;;;5124497;27;20084;-85
2022/02/22 04:45:25;;;;;;;0.37;0.20;;;6.50;69.40;;;;;;5124204;27;20023;-84
2022/02/22 04:47:51;;;;;;;1.90;0.40;;;7.10;68.70;;;;;;5126647;27;20051;-85
2022/02/22 04:50:18;;;;;;;1.17;0.30;;;7.30;66.40;;;;;;5128031;27;20033;-84
2022/02/22 04:52:44;;;;;;;1.77;0.30;;;7.10;66.50;;;;;;5128869;27;20062;-84
2022/02/22 04:55:10;;;;;;;1.13;0.30;;;7.10;67.20;;;;;;5129481;27;20046;-84
2022/02/22 04:57:37;;;;;;;2.57;0.60;;;7.00;66.90;;;;;;5134117;27;20027;-84
2022/02/22 05:00:12;;;;;;;0.40;0.40;;;7.00;67.20;;;;;;5144865;27;20028;-84
2022/02/22 05:02:38;;;;;;;3.60;0.43;;;6.80;67.30;;;;;;5142008;27;20030;-84
2022/02/22 05:05:04;;;;;;;1.37;0.30;;;6.70;67.40;;;;;;5126811;27;20031;-84
2022/02/22 05:07:30;;;;;;;9.60;0.53;;;6.80;67.20;;;;;;5147557;27;20035;-84
2022/02/22 05:09:56;;;;;;;2.30;0.30;;;6.40;66.70;;;;;;5147606;27;20031;-84
2022/02/22 05:12:21;;;;;;;1.67;0.30;;;6.30;65.00;;;;;;5144563;27;20031;-84
2022/02/22 05:14:47;;;;;;;3.90;0.43;;;6.40;64.20;;;;;;5146129;27;20058;-84
2022/02/22 05:17:13;;;;;;;1.63;0.50;;;6.50;63.80;;;;;;5119155;27;20035;-84
2022/02/22 05:19:38;;;;;;;0.77;0.40;;;6.50;63.30;;;;;;5143208;27;20041;-84
2022/02/22 05:22:05;;;;;;;3.10;0.40;;;6.50;63.40;;;;;;5132752;27;20049;-84
2022/02/22 05:24:30;;;;;;;2.57;0.50;;;6.60;63.80;;;;;;5128063;27;20027;-84
2022/02/22 05:26:56;;;;;;;4.53;0.90;;;6.60;63.50;;;;;;5130113;27;20552;-84
2022/02/22 05:29:22;;;;;;;2.83;0.83;;;6.50;64.00;;;;;;5145803;27;20026;-84
2022/02/22 05:31:47;;;;;;;2.40;0.40;;;6.50;64.00;;;;;;5130253;27;20455;-84
2022/02/22 05:34:13;;;;;;;2.07;0.50;;;6.50;64.00;;;;;;5133616;27;20118;-84
2022/02/22 05:36:39;;;;;;;3.27;0.90;;;6.30;64.50;;;;;;5128326;27;20019;-84
2022/02/22 05:39:05;;;;;;;4.07;0.77;;;6.50;64.60;;;;;;5123355;27;20122;-84
2022/02/22 05:41:31;;;;;;;3.80;0.50;;;6.50;64.20;;;;;;5145998;27;20447;-84
2022/02/22 05:43:57;;;;;;;1.90;0.80;;;6.50;64.40;;;;;;5132978;27;20051;-84
2022/02/22 05:46:23;;;;;;;3.10;1.10;;;6.40;64.30;;;;;;5140868;27;20484;-84
2022/02/22 05:48:49;;;;;;;5.60;0.80;;;6.40;64.70;;;;;;5132432;27;20075;-84
2022/02/22 05:51:16;;;;;;;2.87;0.63;;;6.40;64.60;;;;;;5146587;27;20080;-83
2022/02/22 05:53:41;;;;;;;2.10;0.80;;;6.40;64.50;;;;;;5129122;27;20028;-84
2022/02/22 05:56:08;;;;;;;3.17;0.70;;;6.40;64.50;;;;;;5153640;27;20159;-84
2022/02/22 05:58:33;;;;;;;4.67;0.97;;;6.40;64.60;;;;;;5128102;27;20063;-84
2022/02/22 06:00:59;;;;;;;2.53;0.77;;;6.40;64.80;;;;;;5135771;27;20049;-83
2022/02/22 06:03:25;;;;;;;4.80;0.90;;;6.30;65.00;;;;;;5134671;27;20384;-84
2022/02/22 06:05:51;;;;;;;3.37;1.13;;;6.30;65.40;;;;;;5126697;27;20106;-83
2022/02/22 06:08:16;;;;;;;3.13;0.63;;;6.30;65.50;;;;;;5130717;27;20031;-84
2022/02/22 06:10:42;;;;;;;2.90;0.50;;;6.30;65.70;;;;;;5129771;27;20069;-84
2022/02/22 06:13:08;;;;;;;3.20;0.73;;;6.30;66.00;;;;;;5130066;27;20080;-85
2022/02/22 06:15:33;;;;;;;6.17;1.07;;;6.30;66.00;;;;;;5145197;27;20087;-84
2022/02/22 06:17:59;;;;;;;7.20;1.20;;;6.40;66.10;;;;;;5131118;27;20028;-84
2022/02/22 06:20:27;;;;;;;4.33;1.73;;;6.30;66.20;;;;;;5131447;27;20486;-84
2022/02/22 06:22:53;;;;;;;7.70;1.73;;;6.30;66.40;;;;;;5132432;27;20399;-84
2022/02/22 06:25:19;;;;;;;2.87;1.03;;;6.30;66.40;;;;;;5132647;27;20110;-83
2022/02/22 06:27:50;;;;;;;5.67;1.83;;;6.30;66.60;;;;;;5131822;27;20585;-84
2022/02/22 06:30:17;;;;;;;4.10;1.40;;;6.40;66.50;;;;;;5131140;27;20398;-84
2022/02/22 06:32:43;;;;;;;5.17;1.67;;;6.40;66.40;;;;;;5135644;27;20058;-84
2022/02/22 06:35:09;;;;;;;5.47;2.73;;;6.30;66.60;;;;;;5132171;27;20031;-84
2022/02/22 06:37:35;;;;;;;4.60;2.07;;;6.20;67.10;;;;;;5131912;27;20437;-83
2022/02/22 06:40:01;;;;;;;9.87;2.73;;;6.30;67.10;;;;;;5131132;27;20029;-83
2022/02/22 06:42:26;;;;;;;4.97;1.40;;;6.20;66.90;;;;;;5143265;27;20446;-83
2022/02/22 06:44:52;;;;;;;4.20;1.67;;;6.10;67.30;;;;;;5147235;27;20484;-84
2022/02/22 06:47:18;;;;;;;12.87;3.30;;;6.10;67.60;;;;;;5134757;27;20043;-84
2022/02/22 06:49:44;;;;;;;5.57;2.50;;;6.10;67.40;;;;;;5147239;27;20023;-84
2022/02/22 06:52:09;;;;;;;7.67;1.37;;;6.00;67.70;;;;;;5134882;27;20054;-84
2022/02/22 06:54:35;;;;;;;12.53;1.93;;;5.90;68.10;;;;;;5149019;27;20391;-84
2022/02/22 06:57:01;;;;;;;5.40;2.13;;;5.90;68.60;;;;;;5127225;27;20031;-84
2022/02/22 06:59:26;;;;;;;12.27;3.13;;;5.90;68.80;;;;;;5139360;27;20020;-84
2022/02/22 07:01:52;;;;;;;3.17;1.53;;;5.90;68.60;;;;;;5150395;27;20130;-84
2022/02/22 07:04:18;;;;;;;7.17;2.90;;;6.00;68.90;;;;;;5138732;27;20062;-84
2022/02/22 07:06:43;;;;;;;17.37;9.37;;;6.30;68.70;;;;;;5193475;22;20059;-84
2022/02/22 07:09:09;;;;;;;13.73;5.37;;;6.30;68.30;;;;;;5047013;28;20036;-85
2022/02/22 07:11:35;;;;;;;7.47;4.03;;;6.20;68.30;;;;;;5071195;28;20057;-85
2022/02/22 07:14:00;;;;;;;7.47;4.23;;;6.20;68.40;;;;;;5064198;28;20037;-85
2022/02/22 07:16:27;;;;;;;5.13;2.63;;;6.20;68.50;;;;;;5037637;28;20033;-84
2022/02/22 07:18:53;;;;;;;7.40;2.07;;;6.20;68.50;;;;;;5059339;28;20032;-84
2022/02/22 07:21:18;;;;;;;6.10;1.90;;;6.20;68.50;;;;;;5044855;28;20028;-85
2022/02/22 07:23:44;;;;;;;9.67;2.63;;;6.10;68.50;;;;;;5034765;28;20029;-84
2022/02/22 07:26:10;;;;;;;7.90;2.83;;;6.20;68.80;;;;;;5035487;28;20105;-84
2022/02/22 07:28:36;;;;;;;5.03;1.93;;;6.20;68.80;;;;;;5072340;28;20473;-85
2022/02/22 07:31:02;;;;;;;31.43;12.00;;;6.20;68.60;;;;;;5065028;28;20401;-84
2022/02/22 07:33:27;;;;;;;7.23;2.40;;;6.10;68.70;;;;;;5044132;28;20450;-85
2022/02/22 07:35:53;;;;;;;5.50;1.70;;;6.10;68.70;;;;;;5037126;28;20024;-84
2022/02/22 07:38:20;;;;;;;4.60;1.77;;;6.00;68.80;;;;;;5055144;28;20432;-84
2022/02/22 07:40:45;;;;;;;4.73;2.03;;;6.00;69.10;;;;;;5037282;28;20445;-84
2022/02/22 07:43:12;;;;;;;6.37;2.03;;;6.00;69.20;;;;;;5037269;28;20064;-84
2022/02/22 07:45:38;;;;;;;5.43;1.70;;;6.10;69.80;;;;;;5055158;28;20059;-84
2022/02/22 07:48:04;;;;;;;7.67;3.53;;;6.10;69.20;;;;;;5046852;28;22237;-84
2022/02/22 07:50:29;;;;;;;9.33;3.70;;;6.30;69.70;;;;;;5036856;28;20082;-84
2022/02/22 07:52:55;;;;;;;6.47;3.70;;;6.40;69.20;;;;;;5032137;28;20508;-85
2022/02/22 07:55:21;;;;;;;9.00;3.23;;;6.40;68.90;;;;;;5049817;28;20052;-84
2022/02/22 07:57:47;;;;;;;9.23;2.10;;;6.30;68.80;;;;;;5052255;28;20071;-84
2022/02/22 08:00:13;;;;;;;11.33;3.13;;;6.20;69.40;;;;;;5036280;28;20036;-84
2022/02/22 08:02:39;;;;;;;12.60;4.97;;;6.30;69.20;;;;;;5053644;28;20017;-84
2022/02/22 08:05:06;;;;;;;9.13;3.80;;;6.20;69.20;;;;;;5037242;28;20531;-84
2022/02/22 08:07:36;;;;;;;12.67;4.93;;;6.20;69.40;;;;;;5064491;28;20588;-84
2022/02/22 08:10:07;;;;;;;7.77;2.60;;;6.30;69.40;;;;;;5053827;28;20195;-84
2022/02/22 08:12:33;;;;;;;11.67;2.70;;;6.30;69.50;;;;;;5064711;28;20025;-84
2022/02/22 08:14:59;;;;;;;8.37;3.77;;;6.40;69.50;;;;;;5058338;28;20024;-84
2022/02/22 08:17:25;;;;;;;20.00;5.27;;;6.40;69.20;;;;;;5056841;28;20036;-84
2022/02/22 08:19:51;;;;;;;9.37;3.40;;;6.50;69.40;;;;;;5065976;28;20490;-84
2022/02/22 08:22:17;;;;;;;3.93;1.00;;;6.60;69.50;;;;;;5065459;28;20070;-85
2022/02/22 08:24:42;;;;;;;5.93;1.50;;;6.60;67.70;;;;;;5072252;28;20027;-84
2022/02/22 08:27:08;;;;;;;8.03;3.80;;;6.60;66.30;;;;;;5072591;28;20123;-84
2022/02/22 08:29:34;;;;;;;11.07;3.90;;;6.60;66.30;;;;;;5055170;28;20029;-84
2022/02/22 08:32:00;;;;;;;4.63;2.33;;;6.50;66.90;;;;;;5056024;28;20028;-84
2022/02/22 08:34:25;;;;;;;5.57;2.70;;;6.50;67.60;;;;;;5074019;28;20103;-84
2022/02/22 08:36:51;;;;;;;12.90;3.93;;;6.50;67.90;;;;;;5068162;28;20040;-84
2022/02/22 08:39:17;;;;;;;13.60;4.23;;;6.50;68.40;;;;;;5054920;28;20512;-84
2022/02/22 08:41:43;;;;;;;8.47;3.17;;;6.70;68.30;;;;;;5056234;28;20385;-84
2022/02/22 08:44:10;;;;;;;7.17;3.30;;;6.90;68.30;;;;;;5055858;28;20060;-85
2022/02/22 08:46:36;;;;;;;7.20;3.47;;;7.00;68.20;;;;;;5055973;28;20024;-84
2022/02/22 08:49:02;;;;;;;7.13;2.30;;;7.10;67.70;;;;;;5055598;28;20048;-84
2022/02/22 08:51:28;;;;;;;6.13;2.03;;;7.20;67.20;;;;;;5072769;28;20032;-84
2022/02/22 08:53:54;;;;;;;8.90;2.03;;;7.30;67.10;;;;;;5047725;28;20029;-85
2022/02/22 08:56:19;;;;;;;7.13;1.70;;;7.70;67.10;;;;;;5037112;28;20086;-84
2022/02/22 08:58:45;;;;;;;6.53;1.80;;;8.30;66.10;;;;;;5061287;28;20028;-84
2022/02/22 09:01:11;;;;;;;4.13;1.60;;;8.50;65.00;;;;;;5072786;28;20028;-85
2022/02/22 09:03:37;;;;;;;4.73;1.47;;;8.50;64.60;;;;;;5062050;28;20111;-84
2022/02/22 09:06:03;;;;;;;4.03;1.30;;;8.40;64.50;;;;;;5079057;28;20063;-84
2022/02/22 09:08:29;;;;;;;5.83;1.70;;;8.20;64.60;;;;;;5054005;28;20053;-84
2022/02/22 09:10:55;;;;;;;7.17;1.93;;;8.10;64.60;;;;;;5056406;28;20028;-84
2022/02/22 09:13:21;;;;;;;2.83;0.87;;;8.00;64.60;;;;;;5055862;28;20119;-85
2022/02/22 09:15:49;;;;;;;8.50;1.67;;;8.00;64.50;;;;;;5055584;28;20115;-84
2022/02/22 09:18:16;;;;;;;5.63;1.83;;;8.30;64.50;;;;;;5055126;28;20090;-84
2022/02/22 09:20:42;;;;;;;6.10;2.53;;;8.30;63.70;;;;;;5063510;28;20025;-85
2022/02/22 09:23:08;;;;;;;17.90;3.53;;;8.30;63.80;;;;;;5066374;28;20389;-84
2022/02/22 09:25:35;;;;;;;6.80;2.30;;;8.10;63.60;;;;;;5052326;28;20021;-84
2022/02/22 09:28:04;;;;;;;13.63;2.47;;;8.00;63.70;;;;;;5057757;28;20035;-84
2022/02/22 09:30:31;;;;;;;5.97;1.70;;;7.90;64.00;;;;;;5065040;28;20476;-85
2022/02/22 09:32:57;;;;;;;7.50;2.53;;;7.70;64.00;;;;;;5051561;28;20036;-84
2022/02/22 09:35:24;;;;;;;8.27;2.67;;;7.60;64.40;;;;;;5069607;28;20024;-84
2022/02/22 09:37:51;;;;;;;4.87;1.80;;;7.50;64.50;;;;;;5069739;28;20107;-84
2022/02/22 09:40:18;;;;;;;4.60;1.30;;;7.50;64.70;;;;;;5049935;28;20920;-84
2022/02/22 09:42:44;;;;;;;4.50;1.03;;;7.60;64.40;;;;;;5053494;28;20412;-84
2022/02/22 09:45:11;;;;;;;4.43;1.37;;;7.70;64.60;;;;;;5049049;28;20032;-84
2022/02/22 09:47:40;;;;;;;1.77;0.80;;;8.30;64.80;;;;;;5053038;28;20050;-84
2022/02/22 09:50:06;;;;;;;9.43;3.13;;;8.70;63.70;;;;;;5052158;28;20082;-85
2022/02/22 09:52:33;;;;;;;3.70;2.10;;;8.60;62.80;;;;;;5052265;28;20029;-85
2022/02/22 09:54:58;;;;;;;3.97;1.80;;;8.40;62.50;;;;;;5043185;28;20028;-85
2022/02/22 09:57:24;;;;;;;7.10;2.20;;;8.60;64.40;;;;;;5054540;28;20500;-85
2022/02/22 09:59:50;;;;;;;7.50;2.73;;;8.90;63.30;;;;;;5063050;28;20051;-85
2022/02/22 10:02:15;;;;;;;3.70;1.07;;;9.10;63.20;;;;;;5050732;28;20017;-85
2022/02/22 10:04:46;;;;;;;3.73;1.03;;;9.40;63.10;;;;;;5041029;28;20492;-85
2022/02/22 10:07:13;;;;;;;3.40;1.50;;;9.60;62.60;;;;;;5054528;28;20044;-85
2022/02/22 10:09:55;;;;;;;5.73;1.50;;;9.60;62.20;;;;;;5055301;28;20048;-84
2022/02/22 10:12:36;;;;;;;6.30;1.80;;;9.60;61.40;;;;;;5055510;28;20024;-85
2022/02/22 10:15:05;;;;;;;3.70;1.70;;;9.40;60.90;;;;;;5055222;28;20033;-85
2022/02/22 10:17:39;;;;;;;8.93;2.57;;;9.30;61.10;;;;;;5064129;28;20064;-84
2022/02/22 10:20:08;;;;;;;3.83;2.07;;;9.30;61.10;;;;;;5053852;28;20033;-83
2022/02/22 10:22:44;;;;;;;4.37;1.30;;;9.20;60.70;;;;;;5054126;28;20016;-85
2022/02/22 10:25:11;;;;;;;3.50;1.10;;;9.10;60.60;;;;;;5059992;28;20052;-85
2022/02/22 10:27:45;;;;;;;3.17;1.23;;;9.10;61.10;;;;;;5054697;28;20029;-85
2022/02/22 10:30:40;;;;;;;4.93;1.37;;;9.20;61.10;;;;;;5055053;28;20033;-85
2022/02/22 10:33:19;;;;;;;3.53;1.03;;;9.20;60.50;;;;;;5049353;28;20040;-85
2022/02/22 10:35:48;;;;;;;4.37;1.00;;;9.10;60.00;;;;;;5072477;28;20025;-85
2022/02/22 10:38:17;;;;;;;2.33;1.00;;;9.00;59.70;;;;;;5052505;28;20119;-85
2022/02/22 10:40:50;;;;;;;3.70;1.00;;;8.90;59.40;;;;;;5054151;28;20017;-85
2022/02/22 10:43:25;;;;;;;2.23;0.80;;;8.90;59.40;;;;;;5054479;28;20498;-85
2022/02/22 10:45:53;;;;;;;4.30;1.00;;;9.00;59.30;;;;;;5049192;28;20025;-85
2022/02/22 10:48:39;;;;;;;2.87;0.83;;;9.20;59.40;;;;;;5051634;28;20393;-85
2022/02/22 10:51:09;;;;;;;2.13;1.07;;;9.80;59.50;;;;;;5067007;28;20366;-86
2022/02/22 10:53:41;;;;;;;3.37;1.10;;;10.20;58.40;;;;;;5051152;28;20786;-86
2022/02/22 10:56:10;;;;;;;1.80;0.80;;;10.50;57.50;;;;;;5042584;28;20077;-85
2022/02/22 10:58:40;;;;;;;3.40;0.87;;;10.60;55.60;;;;;;5063131;28;20110;-86
2022/02/22 11:01:10;;;;;;;2.70;1.10;;;10.70;55.00;;;;;;5053804;28;20020;-85
2022/02/22 11:03:37;;;;;;;4.97;0.83;;;10.80;54.10;;;;;;5058293;28;20013;-86
2022/02/22 11:06:03;;;;;;;2.97;0.80;;;10.80;53.80;;;;;;5057938;28;20389;-86
2022/02/22 11:08:34;;;;;;;1.57;0.60;;;10.90;52.80;;;;;;5058329;28;20094;-85
2022/02/22 11:11:29;;;;;;;1.80;0.63;;;10.80;51.70;;;;;;5076734;28;20481;-85
2022/02/22 11:13:59;;;;;;;3.67;0.50;;;10.80;50.60;;;;;;5048191;28;20036;-85
2022/02/22 11:16:25;;;;;;;4.00;1.47;;;10.80;50.70;;;;;;5058152;28;20020;-85
2022/02/22 11:18:54;;;;;;;1.67;0.67;;;10.70;50.60;;;;;;5075065;28;20032;-84
2022/02/22 11:21:23;;;;;;;7.13;2.13;;;10.60;50.10;;;;;;5074461;28;20027;-85
2022/02/22 11:24:01;;;;;;;4.83;1.70;;;10.50;50.50;;;;;;5067651;28;20021;-85
2022/02/22 11:26:27;;;;;;;6.17;2.50;;;10.30;51.40;;;;;;5057928;28;20160;-85
2022/02/22 11:28:59;;;;;;;11.03;2.37;;;10.00;52.40;;;;;;5045094;28;20025;-85
2022/02/22 11:31:30;;;;;;;11.00;2.10;;;9.90;53.40;;;;;;5055639;28;20485;-85
2022/02/22 11:34:03;;;;;;;6.43;2.33;;;9.80;53.80;;;;;;5037689;28;20480;-85
2022/02/22 11:36:37;;;;;;;16.38;8.38;;;9.70;54.40;;;;;;5038942;28;20025;-85
2022/02/22 11:39:18;;;;;;;5.63;2.90;;;9.70;54.40;;;;;;5037227;28;20025;-85
2022/02/22 11:41:44;;;;;;;5.37;2.03;;;9.70;54.70;;;;;;5048857;28;20111;-85
2022/02/22 11:44:19;;;;;;;6.23;1.60;;;9.70;54.80;;;;;;5075779;28;20520;-85
2022/02/22 11:46:47;;;;;;;2.23;1.30;;;9.70;54.90;;;;;;5057516;28;20033;-85
2022/02/22 11:49:24;;;;;;;5.83;2.60;;;9.70;54.70;;;;;;5057706;28;20025;-85
2022/02/22 11:51:52;;;;;;;4.03;1.37;;;9.70;54.50;;;;;;5057467;28;20029;-85
2022/02/22 11:54:19;;;;;;;5.90;1.40;;;9.70;54.70;;;;;;5061444;28;20024;-85
2022/02/22 11:56:46;;;;;;;4.00;1.20;;;9.70;54.60;;;;;;5057334;28;20028;-85
2022/02/22 11:59:20;;;;;;;2.80;0.90;;;9.70;54.10;;;;;;5061729;28;20040;-84
2022/02/22 12:01:50;;;;;;;1.93;0.60;;;9.80;54.10;;;;;;5056397;28;20196;-85
2022/02/22 12:04:20;;;;;;;2.93;0.60;;;9.70;53.60;;;;;;5073870;28;20033;-85
2022/02/22 12:06:52;;;;;;;8.00;1.27;;;9.80;53.20;;;;;;5038235;28;20049;-85
2022/02/22 12:09:19;;;;;;;3.30;1.30;;;9.80;53.20;;;;;;5036897;28;20367;-85
2022/02/22 12:11:45;;;;;;;2.80;0.70;;;9.80;53.00;;;;;;5037009;28;20029;-84
2022/02/22 12:14:14;;;;;;;2.20;1.00;;;9.70;52.20;;;;;;5054645;28;20063;-86
2022/02/22 12:16:44;;;;;;;3.40;1.13;;;9.60;52.20;;;;;;5044182;28;20055;-85
2022/02/22 12:19:13;;;;;;;3.90;1.97;;;9.70;52.30;;;;;;5069642;28;20029;-85
2022/02/22 12:21:39;;;;;;;5.03;0.83;;;9.70;52.60;;;;;;5056226;28;20082;-85
2022/02/22 12:24:11;;;;;;;4.67;1.30;;;9.80;52.60;;;;;;5058136;28;20040;-85
2022/02/22 12:26:39;;;;;;;2.60;1.10;;;9.80;52.00;;;;;;5054323;28;20032;-85
2022/02/22 12:29:08;;;;;;;4.57;0.70;;;9.80;52.10;;;;;;5058766;28;20447;-85
2022/02/22 12:31:35;;;;;;;9.13;1.60;;;9.70;51.90;;;;;;5056381;28;20033;-85
2022/02/22 12:34:02;;;;;;;1.60;0.50;;;9.80;51.50;;;;;;5058851;28;20033;-85
2022/02/22 12:36:28;;;;;;;2.73;0.77;;;9.60;51.10;;;;;;5036264;28;20032;-85
2022/02/22 12:38:59;;;;;;;1.53;0.70;;;9.60;51.00;;;;;;5055202;28;20116;-85
2022/02/22 12:41:26;;;;;;;6.43;1.13;;;9.60;50.80;;;;;;5055879;28;20039;-85
2022/02/22 12:43:53;;;;;;;2.93;0.90;;;9.60;50.10;;;;;;5055699;28;20048;-85
2022/02/22 12:46:21;;;;;;;5.47;0.80;;;9.60;50.00;;;;;;5060900;28;20539;-85
2022/02/22 12:48:48;;;;;;;1.10;0.57;;;9.70;50.20;;;;;;5056442;28;20111;-85
2022/02/22 12:51:25;;;;;;;3.67;0.70;;;9.60;50.00;;;;;;5054855;28;20032;-85
2022/02/22 12:54:05;;;;;;;2.97;0.80;;;9.70;50.20;;;;;;5056513;28;20433;-84
2022/02/22 12:56:31;;;;;;;1.80;0.90;;;9.80;50.30;;;;;;5056529;28;20452;-85